createdAt,value
2022-09-15T07:49:46.233Z,1.60
2022-09-15T07:52:47.683Z,1.60
2022-09-15T07:55:53.340Z,1.40
2022-09-15T07:58:56.009Z,1.42
2022-09-15T08:01:57.587Z,1.65
2022-09-15T08:04:59.117Z,1.58
2022-09-15T08:08:00.596Z,1.30
2022-09-15T08:11:06.877Z,1.00
2022-09-15T08:14:08.498Z,1.27
2022-09-15T08:17:11.658Z,1.10
2022-09-15T08:20:13.570Z,1.00
2022-09-15T08:23:15.100Z,1.30
2022-09-15T08:26:16.576Z,1.00
2022-09-15T08:29:18.678Z,1.10
2022-09-15T08:32:20.382Z,0.90
2022-09-15T08:35:21.889Z,1.38
2022-09-15T08:38:23.374Z,1.15
2022-09-15T08:41:24.825Z,1.40
2022-09-15T08:44:38.222Z,1.10
2022-09-15T08:47:45.149Z,1.38
2022-09-15T08:50:52.297Z,1.00
2022-09-15T08:54:01.618Z,0.95
2022-09-15T08:57:04.516Z,1.10
2022-09-15T09:00:13.378Z,1.20
2022-09-15T09:03:36.567Z,1.20
2022-09-15T09:06:50.035Z,1.10
2022-09-15T09:10:12.987Z,1.10
2022-09-15T09:13:36.958Z,1.30
2022-09-15T09:16:41.455Z,0.80
2022-09-15T09:20:01.145Z,1.00
2022-09-15T09:23:05.727Z,1.00
2022-09-15T09:26:11.391Z,0.95
2022-09-15T09:29:18.409Z,1.10
2022-09-15T09:32:25.194Z,1.02
2022-09-15T09:35:36.225Z,1.00
2022-09-15T09:38:43.669Z,1.05
2022-09-15T09:41:45.212Z,0.80
2022-09-15T09:44:47.177Z,1.08
2022-09-15T09:47:48.809Z,0.95
2022-09-15T09:50:51.162Z,0.80
2022-09-15T09:53:53.946Z,0.85
2022-09-15T09:57:16.805Z,1.00
2022-09-15T10:00:33.954Z,0.90
2022-09-15T10:03:35.416Z,1.00
2022-09-15T10:06:36.991Z,0.82
2022-09-15T10:09:39.257Z,0.80
2022-09-15T10:12:41.792Z,0.90
2022-09-15T10:15:43.625Z,0.80
2022-09-15T10:18:49.882Z,0.82
2022-09-15T10:21:54.239Z,0.80
2022-09-15T10:24:55.879Z,1.00
2022-09-15T10:28:09.536Z,0.98
2022-09-15T10:31:16.226Z,1.30
2022-09-15T10:34:26.855Z,1.02
2022-09-15T10:37:36.226Z,1.27
2022-09-15T10:40:40.431Z,0.90
2022-09-15T10:44:02.207Z,1.02
2022-09-15T10:47:06.443Z,0.82
2022-09-15T10:50:33.029Z,1.05
2022-09-15T10:53:43.064Z,1.10
2022-09-15T10:56:48.866Z,1.05
2022-09-15T10:59:59.246Z,0.88
2022-09-15T11:06:26.598Z,0.98
2022-09-15T11:09:42.102Z,1.00
2022-09-15T11:13:22.094Z,1.08
2022-09-15T11:16:49.096Z,0.95
2022-09-15T11:20:19.824Z,0.95
2022-09-15T13:02:02.508Z,1.00
2022-09-15T13:05:04.373Z,1.02
2022-09-15T13:08:10.988Z,0.70
2022-09-15T13:11:15.775Z,1.33
2022-09-15T13:14:37.677Z,1.05
2022-09-15T13:17:44.172Z,1.13
2022-09-15T13:21:00.363Z,1.00
2022-09-15T13:24:06.384Z,0.93
2022-09-15T13:27:09.025Z,1.40
2022-09-15T13:30:29.059Z,2.28
2022-09-15T13:38:20.743Z,1.45
2022-09-15T13:41:40.013Z,1.33
2022-09-15T13:44:44.114Z,1.40
2022-09-15T13:48:01.531Z,1.30
2022-09-15T13:51:15.618Z,1.05
2022-09-15T13:54:19.135Z,1.15
2022-09-15T13:58:54.253Z,1.40
2022-09-15T14:00:51.615Z,1.30
2022-09-15T14:04:00.865Z,1.15
2022-09-15T14:07:02.575Z,0.98
2022-09-15T14:10:04.685Z,0.82
2022-09-15T14:13:06.150Z,0.75
2022-09-15T14:16:19.303Z,1.20
2022-09-15T14:19:34.708Z,0.85
2022-09-15T14:22:40.595Z,0.93
2022-09-15T14:25:45.695Z,1.35
2022-09-15T14:29:12.082Z,1.50
2022-09-15T14:32:15.875Z,1.10
2022-09-15T14:35:20.579Z,0.93
2022-09-15T14:38:24.808Z,0.88
2022-09-15T14:41:31.169Z,0.77
2022-09-15T14:48:02.210Z,1.00
2022-09-15T14:51:23.732Z,0.80
2022-09-15T14:54:32.075Z,0.90
2022-09-15T14:57:36.738Z,1.10
2022-09-15T15:00:48.559Z,0.77
2022-09-15T15:04:11.123Z,1.08
2022-09-15T15:07:30.812Z,0.80
2022-09-15T15:10:35.863Z,1.30
2022-09-15T15:13:42.479Z,1.08
2022-09-15T15:17:08.010Z,0.98
2022-09-15T15:20:09.543Z,0.68
2022-09-15T15:23:18.692Z,0.93
2022-09-15T15:26:28.754Z,0.80
2022-09-15T15:29:44.453Z,1.35
2022-09-15T15:32:46.006Z,1.00
2022-09-15T15:35:59.885Z,0.73
2022-09-15T15:39:04.956Z,1.08
2022-09-15T15:42:08.404Z,0.90
2022-09-15T15:45:33.626Z,1.08
2022-09-15T15:48:38.449Z,0.85
2022-09-15T15:51:40.768Z,0.93
2022-09-15T15:54:43.044Z,1.30
2022-09-15T15:57:47.368Z,0.90
2022-09-15T16:00:54.257Z,1.00
2022-09-15T16:03:55.814Z,1.38
2022-09-15T16:06:57.317Z,0.80
2022-09-15T16:09:59.673Z,0.80
2022-09-15T16:13:01.222Z,0.90
2022-09-15T16:16:15.508Z,1.10
2022-09-15T16:19:17.021Z,0.85
2022-09-15T16:22:23.037Z,0.98
2022-09-15T16:25:39.608Z,1.02
2022-09-15T16:28:41.164Z,0.93
2022-09-15T16:31:42.843Z,0.63
2022-09-15T16:34:44.506Z,1.05
2022-09-15T16:37:45.944Z,1.10
2022-09-15T16:40:48.589Z,0.75
2022-09-15T16:43:50.028Z,0.75
2022-09-15T16:46:51.569Z,0.82
2022-09-15T16:49:53.113Z,1.00
2022-09-15T16:52:54.714Z,0.80
2022-09-15T16:55:56.463Z,0.77
2022-09-15T16:59:00.528Z,0.70
2022-09-15T17:02:02.353Z,0.70
2022-09-15T17:05:36.930Z,0.73
2022-09-15T17:08:38.418Z,0.80
2022-09-15T17:11:39.962Z,1.00
2022-09-15T17:14:41.452Z,0.80
2022-09-15T17:17:42.895Z,1.00
2022-09-15T17:20:46.290Z,0.90
2022-09-15T17:23:49.754Z,0.90
2022-09-15T17:26:51.461Z,0.80
2022-09-15T17:29:52.900Z,0.73
2022-09-15T17:33:02.391Z,1.08
2022-09-15T17:36:04.794Z,1.10
2022-09-15T17:39:06.268Z,1.02
2022-09-15T17:42:09.425Z,0.63
2022-09-15T17:45:22.825Z,1.08
2022-09-15T17:48:25.255Z,0.90
2022-09-15T17:51:26.792Z,0.60
2022-09-15T17:54:28.491Z,1.15
2022-09-15T17:57:30.618Z,0.73
2022-09-15T18:00:37.375Z,0.70
2022-09-15T18:03:38.942Z,0.75
2022-09-15T18:06:45.260Z,0.75
2022-09-15T18:09:47.151Z,0.63
2022-09-15T18:12:51.106Z,0.70
2022-09-15T18:15:56.199Z,0.73
2022-09-15T18:18:57.815Z,0.68
2022-09-15T18:21:59.259Z,0.85
2022-09-15T18:25:00.711Z,0.60
2022-09-15T18:28:03.449Z,0.70
2022-09-15T18:31:04.987Z,0.77
2022-09-15T18:34:06.867Z,0.68
2022-09-15T18:37:08.415Z,0.80
2022-09-15T18:40:12.396Z,0.70
2022-09-15T18:43:13.946Z,0.60
2022-09-15T18:46:16.178Z,0.70
2022-09-15T18:49:17.709Z,0.50
2022-09-15T18:52:19.703Z,0.70
2022-09-15T18:55:22.214Z,0.70
2022-09-15T18:58:24.024Z,0.70
2022-09-15T19:01:25.655Z,0.68
2022-09-15T19:04:31.625Z,0.60
2022-09-15T19:07:34.206Z,0.60
2022-09-15T19:10:35.968Z,0.65
2022-09-15T19:13:37.452Z,0.40
2022-09-15T19:16:56.677Z,0.70
2022-09-15T19:20:00.247Z,0.80
2022-09-15T19:23:01.728Z,0.70
2022-09-15T19:26:09.344Z,0.65
2022-09-15T19:29:11.020Z,0.70
2022-09-15T19:32:14.601Z,0.60
2022-09-15T19:35:16.098Z,0.50
2022-09-15T19:38:17.699Z,0.70
2022-09-15T19:41:19.252Z,0.85
2022-09-15T19:44:20.833Z,0.70
2022-09-15T19:47:22.319Z,0.60
2022-09-15T19:50:23.802Z,0.80
2022-09-15T19:53:25.280Z,0.65
2022-09-15T19:56:28.336Z,0.80
2022-09-15T19:59:31.702Z,0.80
2022-09-15T20:02:33.597Z,0.70
2022-09-15T20:05:35.080Z,0.63
2022-09-15T20:08:36.911Z,0.50
2022-09-15T20:11:38.455Z,0.70
2022-09-15T20:14:40.900Z,0.70
2022-09-15T20:17:42.451Z,0.70
2022-09-15T20:20:44.232Z,0.80
2022-09-15T20:23:47.180Z,0.70
2022-09-15T20:26:48.683Z,0.80
2022-09-15T20:29:50.200Z,0.93
2022-09-15T20:32:51.729Z,0.68
2022-09-15T20:35:53.700Z,0.68
2022-09-15T20:38:56.340Z,0.63
2022-09-15T20:41:58.031Z,0.60
2022-09-15T20:44:59.559Z,0.60
2022-09-15T20:48:01.103Z,0.73
2022-09-15T20:51:06.980Z,0.73
2022-09-15T20:54:10.901Z,0.60
2022-09-15T20:57:12.452Z,0.60
2022-09-15T21:00:14.760Z,0.60
